Time,TemperatureF,DewpointF,PressureIn,WindDirection,WindDirectionDegrees,WindSpeedMPH,WindSpeedGustMPH,Humidity,HourlyPrecipIn,Conditions,Clouds,dailyrainin,SoftwareType,DateUTC
2013-05-10 00:01:00,57.6,52.4,29.89,SW,220,0.0,0.0,83,0.00,SCT,,0.00,WeatherDisplay:10.37,2013-05-10 04:01:00,
2013-05-10 00:02:00,57.6,54.6,29.89,SSW,210,3.5,3.5,90,0.00,FEW,,0.00,WeatherDisplay:10.37,2013-05-10 04:02:00,
2013-05-10 00:07:00,57.6,54.6,29.89,SSW,210,3.5,3.5,90,0.00,FEW,,0.00,WeatherDisplay:10.37,2013-05-10 04:07:00,
2013-05-10 00:12:00,57.4,54.5,29.89,SSW,210,3.5,3.5,90,0.00,FEW,,0.00,WeatherDisplay:10.37,2013-05-10 04:12:00,
2013-05-10 00:17:00,57.4,54.5,29.89,SSW,210,3.5,3.5,90,0.00,FEW,,0.00,WeatherDisplay:10.37,2013-05-10 04:17:00,
2013-05-10 00:22:00,56.8,53.9,29.89,SSW,210,3.5,3.5,90,0.00,FEW,,0.00,WeatherDisplay:10.37,2013-05-10 04:22:00,
2013-05-10 00:27:00,57.0,54.1,29.89,SSW,210,3.5,3.5,90,0.00,FEW,,0.00,WeatherDisplay:10.37,2013-05-10 04:27:00,
2013-05-10 00:32:00,57.0,54.1,29.89,SSW,210,3.5,3.5,90,0.00,FEW,,0.00,WeatherDisplay:10.37,2013-05-10 04:32:00,
2013-05-10 00:37:00,56.8,53.9,29.89,SSW,210,3.5,3.5,90,0.00,FEW,,0.00,WeatherDisplay:10.37,2013-05-10 04:37:00,
2013-05-10 00:42:00,56.7,53.8,29.89,SSW,210,3.5,3.5,90,0.00,FEW,,0.00,WeatherDisplay:10.37,2013-05-10 04:42:00,
2013-05-10 00:47:00,56.8,53.9,29.89,SSW,210,3.5,3.5,90,0.00,FEW,,0.00,WeatherDisplay:10.37,2013-05-10 04:47:00,
2013-05-10 00:52:00,56.7,53.8,29.89,SSW,210,3.5,3.5,90,0.00,FEW,,0.00,WeatherDisplay:10.37,2013-05-10 04:52:00,
2013-05-10 00:57:00,56.3,53.4,29.89,SSW,210,3.5,3.5,90,0.00,FEW,,0.00,WeatherDisplay:10.37,2013-05-10 04:57:00,
2013-05-10 01:02:00,56.5,53.6,29.89,SSW,210,0.0,3.5,90,0.00,FEW,,0.00,WeatherDisplay:10.37,2013-05-10 05:02:00,
2013-05-10 01:07:00,56.1,53.2,29.89,SSW,210,0.0,0.0,90,0.00,FEW,,0.00,WeatherDisplay:10.37,2013-05-10 05:07:00,
2013-05-10 01:12:00,56.1,53.2,29.89,SSW,210,0.0,0.0,90,0.00,FEW,,0.00,WeatherDisplay:10.37,2013-05-10 05:12:00,
2013-05-10 01:17:00,56.1,53.2,29.89,SSW,210,0.0,0.0,90,0.00,FEW,,0.00,WeatherDisplay:10.37,2013-05-10 05:17:00,
2013-05-10 01:22:00,56.1,53.2,29.89,SSW,210,0.0,0.0,90,0.00,FEW,,0.00,WeatherDisplay:10.37,2013-05-10 05:22:00,
2013-05-10 01:27:00,56.3,53.4,29.89,SSW,210,0.0,0.0,90,0.00,FEW,,0.00,WeatherDisplay:10.37,2013-05-10 05:27:00,
2013-05-10 01:32:00,56.1,53.2,29.89,SSW,210,0.0,0.0,90,0.00,FEW,,0.00,WeatherDisplay:10.37,2013-05-10 05:32:00,
2013-05-10 01:37:00,55.6,52.7,29.89,SSW,210,0.0,0.0,90,0.00,FEW,,0.00,WeatherDisplay:10.37,2013-05-10 05:37:00,
2013-05-10 01:42:00,55.6,52.7,29.89,SSW,210,0.0,0.0,90,0.00,FEW,,0.00,WeatherDisplay:10.37,2013-05-10 05:42:00,
2013-05-10 01:47:00,55.4,52.5,29.86,SSW,210,0.0,0.0,90,0.00,FEW,,0.00,WeatherDisplay:10.37,2013-05-10 05:47:00,
2013-05-10 01:52:00,55.6,52.7,29.86,SSW,210,0.0,0.0,90,0.00,FEW,,0.00,WeatherDisplay:10.37,2013-05-10 05:52:00,
2013-05-10 01:57:00,55.2,52.3,29.86,SSW,210,0.0,0.0,90,0.00,FEW,,0.00,WeatherDisplay:10.37,2013-05-10 05:57:00,
2013-05-10 02:02:00,55.4,54.3,29.89,SE,130,3.5,3.5,96,0.00,SCT,,0.00,WeatherDisplay:10.37,2013-05-10 06:02:00,
2013-05-10 02:07:00,55.6,54.5,29.89,SE,130,3.5,3.5,96,0.00,SCT,,0.00,WeatherDisplay:10.37,2013-05-10 06:07:00,
2013-05-10 02:12:00,55.4,54.3,29.89,SE,130,3.5,3.5,96,0.00,SCT,,0.00,WeatherDisplay:10.37,2013-05-10 06:12:00,
2013-05-10 02:17:00,55.4,54.3,29.89,SE,130,3.5,3.5,96,0.00,SCT,,0.00,WeatherDisplay:10.37,2013-05-10 06:17:00,
2013-05-10 02:22:00,55.2,54.1,29.89,SE,130,3.5,3.5,96,0.00,SCT,,0.00,WeatherDisplay:10.37,2013-05-10 06:22:00,
2013-05-10 02:27:00,55.2,54.1,29.89,SE,130,3.5,3.5,96,0.00,SCT,,0.00,WeatherDisplay:10.37,2013-05-10 06:27:00,
2013-05-10 02:33:00,55.2,54.1,29.89,SE,130,3.5,3.5,96,0.00,SCT,,0.00,WeatherDisplay:10.37,2013-05-10 06:33:00,
2013-05-10 02:38:00,55.2,54.1,29.89,SE,130,3.5,3.5,96,0.00,SCT,,0.00,WeatherDisplay:10.37,2013-05-10 06:38:00,
2013-05-10 02:43:00,55.2,54.1,29.89,SE,130,3.5,3.5,96,0.00,SCT,,0.00,WeatherDisplay:10.37,2013-05-10 06:43:00,
2013-05-10 02:48:00,55.2,54.1,29.89,SE,130,3.5,3.5,96,0.00,SCT,,0.00,WeatherDisplay:10.37,2013-05-10 06:48:00,
2013-05-10 02:53:00,54.9,53.7,29.89,SE,130,3.5,3.5,96,0.00,SCT,,0.00,WeatherDisplay:10.37,2013-05-10 06:53:00,
2013-05-10 02:58:00,54.9,53.7,29.89,SE,130,3.5,3.5,96,0.00,SCT,,0.00,WeatherDisplay:10.37,2013-05-10 06:58:00,
2013-05-10 03:03:00,54.9,53.7,29.89,SE,130,0.0,3.5,96,0.00,BKN,,0.00,WeatherDisplay:10.37,2013-05-10 07:03:00,
2013-05-10 03:08:00,54.7,53.6,29.89,SE,130,0.0,0.0,96,0.00,BKN,,0.00,WeatherDisplay:10.37,2013-05-10 07:08:00,
2013-05-10 03:13:00,54.9,53.7,29.89,SE,130,0.0,0.0,96,0.00,BKN,,0.00,WeatherDisplay:10.37,2013-05-10 07:13:00,
2013-05-10 03:18:00,54.9,53.7,29.89,SE,130,0.0,0.0,96,0.00,BKN,,0.00,WeatherDisplay:10.37,2013-05-10 07:18:00,
2013-05-10 03:23:00,54.9,53.7,29.89,SE,130,0.0,0.0,96,0.00,BKN,,0.00,WeatherDisplay:10.37,2013-05-10 07:23:00,
2013-05-10 03:28:00,54.9,53.7,29.89,SE,130,0.0,0.0,96,0.00,BKN,,0.00,WeatherDisplay:10.37,2013-05-10 07:28:00,
2013-05-10 03:33:00,54.9,53.7,29.92,SE,130,0.0,0.0,96,0.00,BKN,,0.00,WeatherDisplay:10.37,2013-05-10 07:33:00,
2013-05-10 03:38:00,54.7,53.6,29.92,SE,130,0.0,0.0,96,0.00,BKN,,0.00,WeatherDisplay:10.37,2013-05-10 07:38:00,
2013-05-10 03:43:00,54.5,53.4,29.92,SE,130,0.0,0.0,96,0.00,BKN,,0.00,WeatherDisplay:10.37,2013-05-10 07:43:00,
2013-05-10 03:48:00,54.7,53.6,29.92,SE,130,0.0,0.0,96,0.00,BKN,,0.00,WeatherDisplay:10.37,2013-05-10 07:48:00,
2013-05-10 03:53:00,54.9,53.7,29.92,SE,130,0.0,0.0,96,0.00,BKN,,0.00,WeatherDisplay:10.37,2013-05-10 07:53:00,
2013-05-10 03:58:00,54.9,53.7,29.92,SE,130,0.0,0.0,96,0.00,BKN,,0.00,WeatherDisplay:10.37,2013-05-10 07:58:00,
2013-05-10 04:03:00,54.7,52.4,29.89,SE,130,0.0,0.0,92,0.00,SCT,,0.00,WeatherDisplay:10.37,2013-05-10 08:03:00,
2013-05-10 04:08:00,54.5,52.2,29.89,SE,130,0.0,0.0,92,0.00,SCT,,0.00,WeatherDisplay:10.37,2013-05-10 08:08:00,
2013-05-10 04:13:00,54.5,52.2,29.89,SE,130,0.0,0.0,92,0.00,SCT,,0.00,WeatherDisplay:10.37,2013-05-10 08:13:00,
2013-05-10 04:18:00,54.1,51.9,29.92,SE,130,0.0,0.0,92,0.00,SCT,,0.00,WeatherDisplay:10.37,2013-05-10 08:18:00,
2013-05-10 04:23:00,54.3,52.0,29.92,SE,130,0.0,0.0,92,0.00,SCT,,0.00,WeatherDisplay:10.37,2013-05-10 08:23:00,
2013-05-10 04:28:00,54.1,51.9,29.92,SE,130,0.0,0.0,92,0.00,SCT,,0.00,WeatherDisplay:10.37,2013-05-10 08:28:00,
2013-05-10 04:33:00,54.0,51.7,29.92,SE,130,0.0,0.0,92,0.00,SCT,,0.00,WeatherDisplay:10.37,2013-05-10 08:33:00,
2013-05-10 04:38:00,54.1,51.9,29.92,SE,130,0.0,0.0,92,0.00,SCT,,0.00,WeatherDisplay:10.37,2013-05-10 08:38:00,
2013-05-10 04:43:00,54.0,51.7,29.92,SE,130,0.0,0.0,92,0.00,SCT,,0.00,WeatherDisplay:10.37,2013-05-10 08:43:00,
2013-05-10 04:48:00,54.0,51.7,29.92,SE,130,0.0,0.0,92,0.00,SCT,,0.00,WeatherDisplay:10.37,2013-05-10 08:48:00,
2013-05-10 04:53:00,54.1,51.9,29.92,SE,130,0.0,0.0,92,0.00,SCT,,0.00,WeatherDisplay:10.37,2013-05-10 08:53:00,
2013-05-10 04:58:00,54.0,51.7,29.92,SE,130,0.0,0.0,92,0.00,SCT,,0.00,WeatherDisplay:10.37,2013-05-10 08:58:00,
2013-05-10 05:03:00,53.6,51.3,29.92,SE,130,0.0,0.0,92,0.00,SCT,,0.00,WeatherDisplay:10.37,2013-05-10 09:03:00,
2013-05-10 05:08:00,54.0,51.7,29.92,SE,130,0.0,0.0,92,0.00,SCT,,0.00,WeatherDisplay:10.37,2013-05-10 09:08:00,
2013-05-10 05:13:00,53.6,51.3,29.92,SE,130,0.0,0.0,92,0.00,SCT,,0.00,WeatherDisplay:10.37,2013-05-10 09:13:00,
2013-05-10 05:18:00,53.4,51.2,29.92,SE,130,0.0,0.0,92,0.00,FEW,,0.00,WeatherDisplay:10.37,2013-05-10 09:18:00,
2013-05-10 05:23:00,53.4,51.2,29.92,SE,130,0.0,0.0,92,0.00,FEW,,0.00,WeatherDisplay:10.37,2013-05-10 09:23:00,
2013-05-10 05:28:00,53.4,51.2,29.92,SE,130,0.0,0.0,92,0.00,FEW,,0.00,WeatherDisplay:10.37,2013-05-10 09:28:00,
2013-05-10 05:33:00,53.2,51.0,29.92,SE,130,0.0,0.0,92,0.00,FEW,,0.00,WeatherDisplay:10.37,2013-05-10 09:33:00,
2013-05-10 05:38:00,53.1,50.8,29.92,SE,130,0.0,0.0,92,0.00,FEW,,0.00,WeatherDisplay:10.37,2013-05-10 09:38:00,
2013-05-10 05:43:00,52.9,50.6,29.92,SE,130,0.0,0.0,92,0.00,FEW,,0.00,WeatherDisplay:10.37,2013-05-10 09:43:00,
2013-05-10 05:48:00,53.1,50.8,29.92,SE,130,0.0,0.0,92,0.00,FEW,,0.00,WeatherDisplay:10.37,2013-05-10 09:48:00,
2013-05-10 05:53:00,53.1,50.8,29.92,SE,130,0.0,0.0,92,0.00,FEW,,0.00,WeatherDisplay:10.37,2013-05-10 09:53:00,
2013-05-10 05:58:00,52.9,50.6,29.92,SE,130,0.0,0.0,92,0.00,FEW,,0.00,WeatherDisplay:10.37,2013-05-10 09:58:00,
2013-05-10 06:03:00,52.9,50.6,29.92,SE,130,0.0,0.0,92,0.00,FEW,,0.00,WeatherDisplay:10.37,2013-05-10 10:03:00,
2013-05-10 06:08:00,52.9,50.6,29.92,SE,130,0.0,0.0,92,0.00,FEW,,0.00,WeatherDisplay:10.37,2013-05-10 10:08:00,
2013-05-10 06:13:00,52.9,50.6,29.92,SE,130,0.0,0.0,92,0.00,FEW,,0.00,WeatherDisplay:10.37,2013-05-10 10:13:00,
2013-05-10 06:18:00,53.1,50.8,29.92,SE,130,0.0,0.0,92,0.00,FEW,,0.00,WeatherDisplay:10.37,2013-05-10 10:18:00,
2013-05-10 06:23:00,53.1,50.8,29.92,SE,130,0.0,0.0,92,0.00,FEW,,0.00,WeatherDisplay:10.37,2013-05-10 10:23:00,
2013-05-10 06:28:00,53.4,51.2,29.92,SE,130,0.0,0.0,92,0.00,FEW,,0.00,WeatherDisplay:10.37,2013-05-10 10:28:00,
2013-05-10 06:33:00,53.6,51.3,29.92,SE,130,0.0,0.0,92,0.00,FEW,,0.00,WeatherDisplay:10.37,2013-05-10 10:33:00,
2013-05-10 06:38:00,53.6,51.3,29.92,SE,130,0.0,0.0,92,0.00,FEW,,0.00,WeatherDisplay:10.37,2013-05-10 10:38:00,
2013-05-10 06:43:00,53.8,51.5,29.92,SE,130,0.0,0.0,92,0.00,FEW,,0.00,WeatherDisplay:10.37,2013-05-10 10:43:00,
2013-05-10 06:48:00,54.0,51.7,29.95,SE,130,0.0,0.0,92,0.00,FEW,,0.00,WeatherDisplay:10.37,2013-05-10 10:48:00,
2013-05-10 06:53:00,54.1,51.9,29.95,SE,130,0.0,0.0,92,0.00,FEW,,0.00,WeatherDisplay:10.37,2013-05-10 10:53:00,
2013-05-10 06:58:00,54.5,52.2,29.95,SE,130,0.0,0.0,92,0.00,FEW,,0.00,WeatherDisplay:10.37,2013-05-10 10:58:00,
2013-05-10 07:03:00,54.5,51.3,29.95,SSW,200,3.5,3.5,89,0.00,SCT,,0.00,WeatherDisplay:10.37,2013-05-10 11:03:00,
2013-05-10 07:08:00,54.7,51.5,29.95,SSW,200,3.5,3.5,89,0.00,SCT,,0.00,WeatherDisplay:10.37,2013-05-10 11:08:00,
2013-05-10 07:13:00,55.0,51.9,29.95,SSW,200,3.5,3.5,89,0.00,SCT,,0.00,WeatherDisplay:10.37,2013-05-10 11:13:00,
2013-05-10 07:18:00,55.4,52.2,29.95,SSW,200,3.5,3.5,89,0.00,SCT,,0.00,WeatherDisplay:10.37,2013-05-10 11:18:00,
2013-05-10 07:23:00,55.6,52.4,29.95,SSW,200,3.5,3.5,89,0.00,SCT,,0.00,WeatherDisplay:10.37,2013-05-10 11:23:00,
2013-05-10 07:28:00,55.9,52.7,29.95,SSW,200,3.5,3.5,89,0.00,SCT,,0.00,WeatherDisplay:10.37,2013-05-10 11:28:00,
2013-05-10 07:33:00,56.1,52.9,29.95,SSW,200,3.5,3.5,89,0.00,SCT,,0.00,WeatherDisplay:10.37,2013-05-10 11:33:00,
2013-05-10 07:38:00,56.3,53.1,29.95,SSW,200,3.5,3.5,89,0.00,SCT,,0.00,WeatherDisplay:10.37,2013-05-10 11:38:00,
2013-05-10 07:43:00,56.3,53.1,29.95,SSW,200,3.5,3.5,89,0.00,SCT,,0.00,WeatherDisplay:10.37,2013-05-10 11:43:00,
2013-05-10 07:48:00,56.5,53.3,29.95,SSW,200,3.5,3.5,89,0.00,SCT,,0.00,WeatherDisplay:10.37,2013-05-10 11:48:00,
2013-05-10 07:53:00,56.7,53.5,29.95,SSW,200,3.5,3.5,89,0.00,SCT,,0.00,WeatherDisplay:10.37,2013-05-10 11:53:00,
2013-05-10 07:58:00,56.8,53.6,29.95,SSW,200,3.5,3.5,89,0.00,SCT,,0.00,WeatherDisplay:10.37,2013-05-10 11:58:00,
2013-05-10 08:03:00,57.2,52.1,29.95,South,190,5.8,5.8,83,0.00,SCT,,0.00,WeatherDisplay:10.37,2013-05-10 12:03:00,
2013-05-10 08:08:00,57.4,52.3,29.95,South,190,5.8,5.8,83,0.00,SCT,,0.00,WeatherDisplay:10.37,2013-05-10 12:08:00,
2013-05-10 08:13:00,57.7,52.6,29.95,South,190,5.8,5.8,83,0.00,SCT,,0.00,WeatherDisplay:10.37,2013-05-10 12:13:00,
2013-05-10 08:18:00,58.3,53.1,29.95,South,190,5.8,5.8,83,0.00,SCT,,0.00,WeatherDisplay:10.37,2013-05-10 12:18:00,
2013-05-10 08:23:00,58.6,53.5,29.95,South,190,5.8,5.8,83,0.00,SCT,,0.00,WeatherDisplay:10.37,2013-05-10 12:23:00,
2013-05-10 08:28:00,59.2,54.0,29.95,South,190,5.8,5.8,83,0.00,SCT,,0.00,WeatherDisplay:10.37,2013-05-10 12:28:00,
2013-05-10 08:33:00,59.5,54.4,29.92,South,190,5.8,5.8,83,0.00,SCT,,0.00,WeatherDisplay:10.37,2013-05-10 12:33:00,
2013-05-10 08:38:00,59.9,54.7,29.92,South,190,5.8,5.8,83,0.00,SCT,,0.00,WeatherDisplay:10.37,2013-05-10 12:38:00,
2013-05-10 08:43:00,60.3,55.1,29.92,South,190,5.8,5.8,83,0.00,SCT,,0.00,WeatherDisplay:10.37,2013-05-10 12:43:00,
2013-05-10 08:48:00,60.6,55.4,29.95,South,190,5.8,5.8,83,0.00,SCT,,0.00,WeatherDisplay:10.37,2013-05-10 12:48:00,
2013-05-10 08:53:00,61.0,55.8,29.95,South,190,5.8,5.8,83,0.00,SCT,,0.00,WeatherDisplay:10.37,2013-05-10 12:53:00,
2013-05-10 08:58:00,62.6,57.4,29.95,South,190,5.8,5.8,83,0.00,SCT,,0.00,WeatherDisplay:10.37,2013-05-10 12:58:00,
2013-05-10 09:03:00,72.5,63.7,29.95,SSE,160,3.5,3.5,74,0.00,SCT,,0.00,WeatherDisplay:10.37,2013-05-10 13:03:00,
2013-05-10 09:08:00,78.8,69.8,29.95,SSE,160,3.5,3.5,74,0.00,SCT,,0.00,WeatherDisplay:10.37,2013-05-10 13:08:00,
2013-05-10 09:13:00,78.4,69.5,29.95,SSE,160,3.5,3.5,74,0.00,SCT,,0.00,WeatherDisplay:10.37,2013-05-10 13:13:00,
2013-05-10 09:18:00,73.8,65.0,29.95,SSE,160,3.5,3.5,74,0.00,SCT,,0.00,WeatherDisplay:10.37,2013-05-10 13:18:00,
2013-05-10 09:23:00,70.2,61.5,29.95,SSE,160,3.5,3.5,74,0.00,SCT,,0.00,WeatherDisplay:10.37,2013-05-10 13:23:00,
2013-05-10 09:28:00,69.4,60.8,29.95,SSE,160,3.5,3.5,74,0.00,SCT,,0.00,WeatherDisplay:10.37,2013-05-10 13:28:00,
2013-05-10 09:33:00,69.1,60.4,29.95,SSE,160,3.5,3.5,74,0.00,SCT,,0.00,WeatherDisplay:10.37,2013-05-10 13:33:00,
2013-05-10 09:38:00,68.7,60.1,29.95,SSE,160,3.5,3.5,74,0.00,SCT,,0.00,WeatherDisplay:10.37,2013-05-10 13:38:00,
2013-05-10 09:43:00,68.9,60.3,29.95,SSE,160,3.5,3.5,74,0.00,SCT,,0.00,WeatherDisplay:10.37,2013-05-10 13:43:00,
2013-05-10 09:48:00,69.1,60.4,29.95,SSE,160,3.5,3.5,74,0.00,SCT,,0.00,WeatherDisplay:10.37,2013-05-10 13:48:00,
2013-05-10 09:53:00,69.3,60.6,29.95,SSE,160,3.5,3.5,74,0.00,SCT,,0.00,WeatherDisplay:10.37,2013-05-10 13:53:00,
2013-05-10 09:58:00,69.3,60.6,29.95,SSE,160,3.5,3.5,74,0.00,SCT,,0.00,WeatherDisplay:10.37,2013-05-10 13:58:00,
2013-05-10 10:03:00,69.1,55.5,29.95,SSE,160,0.0,0.0,62,0.00,BKN,,0.00,WeatherDisplay:10.37,2013-05-10 14:03:00,
2013-05-10 10:08:00,69.6,56.0,29.95,SSE,160,0.0,0.0,62,0.00,BKN,,0.00,WeatherDisplay:10.37,2013-05-10 14:08:00,
2013-05-10 10:13:00,68.9,55.3,29.95,SSE,160,0.0,0.0,62,0.00,BKN,,0.00,WeatherDisplay:10.37,2013-05-10 14:13:00,
2013-05-10 10:18:00,68.9,55.3,29.95,SSE,160,0.0,0.0,62,0.00,BKN,,0.00,WeatherDisplay:10.37,2013-05-10 14:18:00,
2013-05-10 10:23:00,68.9,55.3,29.95,SSE,160,0.0,0.0,62,0.00,BKN,,0.00,WeatherDisplay:10.37,2013-05-10 14:23:00,
2013-05-10 10:28:00,69.1,55.5,29.95,SSE,160,0.0,0.0,62,0.00,BKN,,0.00,WeatherDisplay:10.37,2013-05-10 14:28:00,
2013-05-10 10:33:00,69.3,55.7,29.92,SSE,160,0.0,0.0,62,0.00,BKN,,0.00,WeatherDisplay:10.37,2013-05-10 14:33:00,
2013-05-10 10:38:00,70.7,57.0,29.92,SSE,160,0.0,0.0,62,0.00,BKN,,0.00,WeatherDisplay:10.37,2013-05-10 14:38:00,
2013-05-10 10:43:00,73.2,59.4,29.92,SSE,160,0.0,0.0,62,0.00,BKN,,0.00,WeatherDisplay:10.37,2013-05-10 14:43:00,
2013-05-10 10:48:00,77.0,63.0,29.92,SSE,160,0.0,0.0,62,0.00,BKN,,0.00,WeatherDisplay:10.37,2013-05-10 14:48:00,
2013-05-10 10:53:00,79.9,65.7,29.92,SSE,160,0.0,0.0,62,0.00,BKN,,0.00,WeatherDisplay:10.37,2013-05-10 14:53:00,
2013-05-10 10:58:00,81.0,66.7,29.92,SSE,160,0.0,0.0,62,0.00,BKN,,0.00,WeatherDisplay:10.37,2013-05-10 14:58:00,
2013-05-10 11:03:00,79.5,62.4,29.92,NNE,30,3.5,3.5,56,0.00,BKN,,0.00,WeatherDisplay:10.37,2013-05-10 15:03:00,
2013-05-10 11:08:00,76.5,59.6,29.92,NNE,30,3.5,3.5,56,0.00,BKN,,0.00,WeatherDisplay:10.37,2013-05-10 15:08:00,
2013-05-10 11:13:00,77.5,60.6,29.92,NNE,30,3.5,3.5,56,0.00,BKN,,0.00,WeatherDisplay:10.37,2013-05-10 15:13:00,
2013-05-10 11:18:00,78.8,61.8,29.92,NNE,30,3.5,3.5,56,0.00,BKN,,0.00,WeatherDisplay:10.37,2013-05-10 15:18:00,
2013-05-10 11:23:00,76.5,59.6,29.92,NNE,30,3.5,3.5,56,0.00,BKN,,0.00,WeatherDisplay:10.37,2013-05-10 15:23:00,
2013-05-10 11:28:00,75.6,58.8,29.92,NNE,30,3.5,3.5,56,0.00,BKN,,0.00,WeatherDisplay:10.37,2013-05-10 15:28:00,
2013-05-10 11:33:00,74.8,58.1,29.92,NNE,30,3.5,3.5,56,0.00,BKN,,0.00,WeatherDisplay:10.37,2013-05-10 15:33:00,
2013-05-10 11:38:00,74.1,57.4,29.92,NNE,30,3.5,3.5,56,0.00,BKN,,0.00,WeatherDisplay:10.37,2013-05-10 15:38:00,
2013-05-10 11:43:00,73.6,56.9,29.92,NNE,30,3.5,3.5,56,0.00,BKN,,0.00,WeatherDisplay:10.37,2013-05-10 15:43:00,
2013-05-10 11:48:00,73.8,57.1,29.92,NNE,30,3.5,3.5,56,0.00,BKN,,0.00,WeatherDisplay:10.37,2013-05-10 15:48:00,
2013-05-10 11:53:00,73.4,56.7,29.92,NNE,30,3.5,3.5,56,0.00,BKN,,0.00,WeatherDisplay:10.37,2013-05-10 15:53:00,
2013-05-10 11:58:00,73.2,56.6,29.92,NNE,30,3.5,3.5,56,0.00,BKN,,0.00,WeatherDisplay:10.37,2013-05-10 15:58:00,
2013-05-10 12:03:00,72.9,53.7,29.92,NNE,30,0.0,0.0,51,0.00,BKN,,0.00,WeatherDisplay:10.37,2013-05-10 16:03:00,
2013-05-10 12:08:00,72.9,53.7,29.92,NNE,30,0.0,0.0,51,0.00,BKN,,0.00,WeatherDisplay:10.37,2013-05-10 16:08:00,
2013-05-10 12:13:00,72.9,53.7,29.92,NNE,30,0.0,0.0,51,0.00,BKN,,0.00,WeatherDisplay:10.37,2013-05-10 16:13:00,
2013-05-10 12:18:00,72.9,53.7,29.89,NNE,30,0.0,0.0,51,0.00,BKN,,0.00,WeatherDisplay:10.37,2013-05-10 16:18:00,
2013-05-10 12:23:00,73.0,53.8,29.89,NNE,30,0.0,0.0,51,0.00,BKN,,0.00,WeatherDisplay:10.37,2013-05-10 16:23:00,
2013-05-10 12:28:00,73.0,53.8,29.89,NNE,30,0.0,0.0,51,0.00,BKN,,0.00,WeatherDisplay:10.37,2013-05-10 16:28:00,
2013-05-10 12:33:00,72.9,53.7,29.89,NNE,30,0.0,0.0,51,0.00,BKN,,0.00,WeatherDisplay:10.37,2013-05-10 16:33:00,
2013-05-10 12:38:00,72.7,53.5,29.89,NNE,30,0.0,0.0,51,0.00,BKN,,0.00,WeatherDisplay:10.37,2013-05-10 16:38:00,
2013-05-10 12:43:00,72.9,53.7,29.89,NNE,30,0.0,0.0,51,0.00,BKN,,0.00,WeatherDisplay:10.37,2013-05-10 16:43:00,
2013-05-10 12:48:00,72.7,53.5,29.89,NNE,30,0.0,0.0,51,0.00,BKN,,0.00,WeatherDisplay:10.37,2013-05-10 16:48:00,
2013-05-10 12:53:00,73.2,54.0,29.89,NNE,30,0.0,0.0,51,0.00,BKN,,0.00,WeatherDisplay:10.37,2013-05-10 16:53:00,
2013-05-10 12:58:00,73.0,53.8,29.89,NNE,30,0.0,0.0,51,0.00,BKN,,0.00,WeatherDisplay:10.37,2013-05-10 16:58:00,
2013-05-10 13:03:00,72.7,49.5,29.89,NNE,30,0.0,0.0,44,0.00,BKN,,0.00,WeatherDisplay:10.37,2013-05-10 17:03:00,
2013-05-10 13:08:00,72.9,49.7,29.89,NNE,30,0.0,0.0,44,0.00,BKN,,0.00,WeatherDisplay:10.37,2013-05-10 17:08:00,
2013-05-10 13:13:00,73.0,49.8,29.89,NNE,30,0.0,0.0,44,0.00,BKN,,0.00,WeatherDisplay:10.37,2013-05-10 17:13:00,
2013-05-10 13:18:00,73.0,49.8,29.89,NNE,30,0.0,0.0,44,0.00,BKN,,0.00,WeatherDisplay:10.37,2013-05-10 17:18:00,
2013-05-10 13:23:00,73.6,50.3,29.89,NNE,30,0.0,0.0,44,0.00,BKN,,0.00,WeatherDisplay:10.37,2013-05-10 17:23:00,
2013-05-10 13:28:00,73.9,50.6,29.89,NNE,30,0.0,0.0,44,0.00,BKN,,0.00,WeatherDisplay:10.37,2013-05-10 17:28:00,
2013-05-10 13:33:00,73.9,50.6,29.89,NNE,30,0.0,0.0,44,0.00,BKN,,0.00,WeatherDisplay:10.37,2013-05-10 17:33:00,
2013-05-10 13:38:00,74.1,50.8,29.89,NNE,30,0.0,0.0,44,0.00,BKN,,0.00,WeatherDisplay:10.37,2013-05-10 17:38:00,
2013-05-10 13:43:00,74.1,50.8,29.89,NNE,30,0.0,0.0,44,0.00,BKN,,0.00,WeatherDisplay:10.37,2013-05-10 17:43:00,
2013-05-10 13:48:00,74.1,50.8,29.89,NNE,30,0.0,0.0,44,0.00,BKN,,0.00,WeatherDisplay:10.37,2013-05-10 17:48:00,
2013-05-10 13:53:00,73.8,50.5,29.89,NNE,30,0.0,0.0,44,0.00,BKN,,0.00,WeatherDisplay:10.37,2013-05-10 17:53:00,
2013-05-10 13:58:00,74.7,51.3,29.89,NNE,30,0.0,0.0,44,0.00,BKN,,0.00,WeatherDisplay:10.37,2013-05-10 17:58:00,
2013-05-10 14:03:00,74.7,52.5,29.89,WSW,240,3.5,3.5,46,0.00,BKN,,0.00,WeatherDisplay:10.37,2013-05-10 18:03:00,
2013-05-10 14:08:00,74.8,52.7,29.89,WSW,240,3.5,3.5,46,0.00,BKN,,0.00,WeatherDisplay:10.37,2013-05-10 18:08:00,
2013-05-10 14:13:00,74.8,52.7,29.89,WSW,240,3.5,3.5,46,0.00,BKN,,0.00,WeatherDisplay:10.37,2013-05-10 18:13:00,
2013-05-10 14:18:00,74.5,52.3,29.89,WSW,240,3.5,3.5,46,0.00,BKN,,0.00,WeatherDisplay:10.37,2013-05-10 18:18:00,
2013-05-10 14:23:00,74.3,52.2,29.89,WSW,240,3.5,3.5,46,0.00,BKN,,0.00,WeatherDisplay:10.37,2013-05-10 18:23:00,
2013-05-10 14:28:00,74.3,52.2,29.89,WSW,240,3.5,3.5,46,0.00,BKN,,0.00,WeatherDisplay:10.37,2013-05-10 18:28:00,
2013-05-10 14:33:00,74.8,52.7,29.86,WSW,240,3.5,3.5,46,0.00,BKN,,0.00,WeatherDisplay:10.37,2013-05-10 18:33:00,
2013-05-10 14:38:00,74.5,52.3,29.86,WSW,240,3.5,3.5,46,0.00,BKN,,0.00,WeatherDisplay:10.37,2013-05-10 18:38:00,
2013-05-10 14:43:00,74.7,52.5,29.86,WSW,240,3.5,3.5,46,0.00,BKN,,0.00,WeatherDisplay:10.37,2013-05-10 18:43:00,
2013-05-10 14:48:00,74.1,52.0,29.86,WSW,240,3.5,3.5,46,0.00,BKN,,0.00,WeatherDisplay:10.37,2013-05-10 18:48:00,
2013-05-10 14:53:00,74.3,52.2,29.86,WSW,240,3.5,3.5,46,0.00,BKN,,0.00,WeatherDisplay:10.37,2013-05-10 18:53:00,
2013-05-10 14:58:00,74.7,52.5,29.86,WSW,240,3.5,3.5,46,0.00,BKN,,0.00,WeatherDisplay:10.37,2013-05-10 18:58:00,
2013-05-10 15:03:00,74.3,50.4,29.86,SSE,160,5.8,5.8,43,0.00,BKN,,0.00,WeatherDisplay:10.37,2013-05-10 19:03:00,
2013-05-10 15:08:00,74.3,50.4,29.86,SSE,160,5.8,5.8,43,0.00,BKN,,0.00,WeatherDisplay:10.37,2013-05-10 19:08:00,
2013-05-10 15:13:00,74.1,50.2,29.86,SSE,160,5.8,5.8,43,0.00,BKN,,0.00,WeatherDisplay:10.37,2013-05-10 19:13:00,
2013-05-10 15:18:00,73.9,50.0,29.86,SSE,160,5.8,5.8,43,0.00,BKN,,0.00,WeatherDisplay:10.37,2013-05-10 19:18:00,
2013-05-10 15:23:00,73.9,50.0,29.86,SSE,160,5.8,5.8,43,0.00,BKN,,0.00,WeatherDisplay:10.37,2013-05-10 19:23:00,
2013-05-10 15:28:00,73.9,50.0,29.86,SSE,160,5.8,5.8,43,0.00,BKN,,0.00,WeatherDisplay:10.37,2013-05-10 19:28:00,
2013-05-10 15:33:00,73.9,50.0,29.86,SSE,160,5.8,5.8,43,0.00,BKN,,0.00,WeatherDisplay:10.37,2013-05-10 19:33:00,
2013-05-10 15:38:00,73.9,50.0,29.86,SSE,160,5.8,5.8,43,0.00,BKN,,0.00,WeatherDisplay:10.37,2013-05-10 19:38:00,
2013-05-10 15:43:00,73.8,49.9,29.86,SSE,160,5.8,5.8,43,0.00,BKN,,0.00,WeatherDisplay:10.37,2013-05-10 19:43:00,
2013-05-10 15:48:00,73.9,50.0,29.86,SSE,160,5.8,5.8,43,0.00,BKN,,0.00,WeatherDisplay:10.37,2013-05-10 19:48:00,
2013-05-10 15:53:00,73.8,49.9,29.86,SSE,160,5.8,5.8,43,0.00,BKN,,0.00,WeatherDisplay:10.37,2013-05-10 19:53:00,
2013-05-10 15:58:00,73.8,49.9,29.86,SSE,160,5.8,5.8,43,0.00,BKN,,0.00,WeatherDisplay:10.37,2013-05-10 19:58:00,
2013-05-10 16:03:00,73.6,50.3,29.86,South,180,3.5,3.5,44,0.00,OVC,,0.00,WeatherDisplay:10.37,2013-05-10 20:03:00,
2013-05-10 16:08:00,73.8,50.5,29.86,South,180,3.5,3.5,44,0.00,OVC,,0.00,WeatherDisplay:10.37,2013-05-10 20:08:00,
2013-05-10 16:13:00,73.8,50.5,29.86,South,180,3.5,3.5,44,0.00,OVC,,0.00,WeatherDisplay:10.37,2013-05-10 20:13:00,
2013-05-10 16:18:00,73.6,50.3,29.83,South,180,3.5,3.5,44,0.00,OVC,,0.00,WeatherDisplay:10.37,2013-05-10 20:18:00,
2013-05-10 16:23:00,73.6,50.3,29.83,South,180,3.5,3.5,44,0.00,OVC,,0.00,WeatherDisplay:10.37,2013-05-10 20:23:00,
2013-05-10 16:28:00,73.8,50.5,29.83,South,180,3.5,3.5,44,0.00,OVC,,0.00,WeatherDisplay:10.37,2013-05-10 20:28:00,
2013-05-10 16:33:00,73.6,50.3,29.86,South,180,3.5,3.5,44,0.00,OVC,,0.00,WeatherDisplay:10.37,2013-05-10 20:33:00,
2013-05-10 16:38:00,73.4,50.2,29.86,South,180,3.5,3.5,44,0.00,OVC,,0.00,WeatherDisplay:10.37,2013-05-10 20:38:00,
2013-05-10 16:43:00,73.4,50.2,29.86,South,180,3.5,3.5,44,0.00,OVC,,0.00,WeatherDisplay:10.37,2013-05-10 20:43:00,
2013-05-10 16:48:00,73.0,49.8,29.86,South,180,3.5,3.5,44,0.00,OVC,,0.00,WeatherDisplay:10.37,2013-05-10 20:48:00,
2013-05-10 16:53:00,73.0,49.8,29.86,South,180,3.5,3.5,44,0.00,OVC,,0.00,WeatherDisplay:10.37,2013-05-10 20:53:00,
2013-05-10 16:58:00,73.2,50.0,29.86,South,180,3.5,3.5,44,0.00,OVC,,0.00,WeatherDisplay:10.37,2013-05-10 20:58:00,
2013-05-10 17:03:00,73.4,49.5,29.83,South,190,6.9,6.9,43,0.00,OVC,,0.00,WeatherDisplay:10.37,2013-05-10 21:03:00,
2013-05-10 17:08:00,73.6,49.7,29.83,South,190,6.9,6.9,43,0.00,OVC,,0.00,WeatherDisplay:10.37,2013-05-10 21:08:00,
2013-05-10 17:13:00,73.6,49.7,29.83,South,190,6.9,6.9,43,0.00,OVC,,0.00,WeatherDisplay:10.37,2013-05-10 21:13:00,
2013-05-10 17:18:00,73.8,49.9,29.83,South,190,6.9,6.9,43,0.00,OVC,,0.00,WeatherDisplay:10.37,2013-05-10 21:18:00,
2013-05-10 17:23:00,73.6,49.7,29.83,South,190,6.9,6.9,43,0.00,OVC,,0.00,WeatherDisplay:10.37,2013-05-10 21:23:00,
2013-05-10 17:28:00,73.6,49.7,29.83,South,190,6.9,6.9,43,0.00,OVC,,0.00,WeatherDisplay:10.37,2013-05-10 21:28:00,
2013-05-10 17:33:00,73.6,49.7,29.83,South,190,6.9,6.9,43,0.00,OVC,,0.00,WeatherDisplay:10.37,2013-05-10 21:33:00,
2013-05-10 17:38:00,73.6,49.7,29.83,South,190,6.9,6.9,43,0.00,OVC,,0.00,WeatherDisplay:10.37,2013-05-10 21:38:00,
2013-05-10 17:43:00,73.4,49.5,29.83,South,190,6.9,6.9,43,0.00,OVC,,0.00,WeatherDisplay:10.37,2013-05-10 21:43:00,
2013-05-10 17:48:00,73.2,49.4,29.83,South,190,6.9,6.9,43,0.00,OVC,,0.00,WeatherDisplay:10.37,2013-05-10 21:48:00,
2013-05-10 17:53:00,73.0,49.2,29.83,South,190,6.9,6.9,43,0.00,OVC,,0.00,WeatherDisplay:10.37,2013-05-10 21:53:00,
2013-05-10 17:58:00,73.0,49.2,29.83,South,190,6.9,6.9,43,0.00,OVC,,0.00,WeatherDisplay:10.37,2013-05-10 21:58:00,
2013-05-10 17:59:00,72.9,49.1,29.83,South,190,6.9,6.9,43,0.00,OVC,,0.00,WeatherDisplay:10.37,2013-05-10 21:59:00,
2013-05-10 18:04:00,72.9,47.1,29.83,South,170,8.1,8.1,40,0.00,OVC,,0.00,WeatherDisplay:10.37,2013-05-10 22:04:00,
2013-05-10 18:09:00,72.7,47.0,29.83,South,170,8.1,8.1,40,0.00,OVC,,0.00,WeatherDisplay:10.37,2013-05-10 22:09:00,
2013-05-10 18:14:00,72.3,46.6,29.83,South,170,8.1,8.1,40,0.00,OVC,,0.00,WeatherDisplay:10.37,2013-05-10 22:14:00,
2013-05-10 18:19:00,72.3,46.6,29.83,South,170,8.1,8.1,40,0.00,OVC,,0.00,WeatherDisplay:10.37,2013-05-10 22:19:00,
2013-05-10 18:24:00,72.3,46.6,29.83,South,170,8.1,8.1,40,0.00,OVC,,0.00,WeatherDisplay:10.37,2013-05-10 22:24:00,
2013-05-10 18:29:00,72.3,46.6,29.83,South,170,8.1,8.1,40,0.00,OVC,,0.00,WeatherDisplay:10.37,2013-05-10 22:29:00,
2013-05-10 18:34:00,72.1,46.5,29.83,South,170,8.1,8.1,40,0.00,OVC,,0.00,WeatherDisplay:10.37,2013-05-10 22:34:00,
2013-05-10 18:39:00,72.1,46.5,29.83,South,170,8.1,8.1,40,0.00,OVC,,0.00,WeatherDisplay:10.37,2013-05-10 22:39:00,
2013-05-10 18:44:00,72.1,46.5,29.83,South,170,8.1,8.1,40,0.00,OVC,,0.00,WeatherDisplay:10.37,2013-05-10 22:44:00,
2013-05-10 18:49:00,72.0,46.3,29.83,South,170,8.1,8.1,40,0.00,OVC,,0.00,WeatherDisplay:10.37,2013-05-10 22:49:00,
2013-05-10 18:54:00,71.8,46.2,29.83,South,170,8.1,8.1,40,0.00,OVC,,0.00,WeatherDisplay:10.37,2013-05-10 22:54:00,
2013-05-10 18:59:00,71.8,46.2,29.83,South,170,8.1,8.1,40,0.00,OVC,,0.00,WeatherDisplay:10.37,2013-05-10 22:59:00,
2013-05-10 19:04:00,71.4,49.6,29.83,South,190,8.1,8.1,46,0.00,OVC,,0.00,WeatherDisplay:10.37,2013-05-10 23:04:00,
2013-05-10 19:09:00,71.2,49.4,29.83,South,190,8.1,8.1,46,0.00,OVC,,0.00,WeatherDisplay:10.37,2013-05-10 23:09:00,
2013-05-10 19:14:00,71.4,49.6,29.83,South,190,8.1,8.1,46,0.00,OVC,,0.00,WeatherDisplay:10.37,2013-05-10 23:14:00,
2013-05-10 19:19:00,71.4,49.6,29.83,South,190,8.1,8.1,46,0.00,OVC,,0.00,WeatherDisplay:10.37,2013-05-10 23:19:00,
2013-05-10 19:24:00,71.4,49.6,29.83,South,190,8.1,8.1,46,0.00,OVC,,0.00,WeatherDisplay:10.37,2013-05-10 23:24:00,
2013-05-10 19:29:00,71.4,49.6,29.83,South,190,8.1,8.1,46,0.00,OVC,,0.00,WeatherDisplay:10.37,2013-05-10 23:29:00,
2013-05-10 19:34:00,71.2,49.4,29.83,South,190,8.1,8.1,46,0.00,OVC,,0.00,WeatherDisplay:10.37,2013-05-10 23:34:00,
2013-05-10 19:39:00,71.2,49.4,29.83,South,190,8.1,8.1,46,0.00,OVC,,0.00,WeatherDisplay:10.37,2013-05-10 23:39:00,
2013-05-10 19:44:00,71.2,49.4,29.83,South,190,8.1,8.1,46,0.00,OVC,,0.00,WeatherDisplay:10.37,2013-05-10 23:44:00,
2013-05-10 19:49:00,71.1,49.2,29.83,South,190,8.1,8.1,46,0.00,OVC,,0.00,WeatherDisplay:10.37,2013-05-10 23:49:00,
2013-05-10 19:54:00,71.1,49.2,29.83,South,190,8.1,8.1,46,0.00,OVC,,0.00,WeatherDisplay:10.37,2013-05-10 23:54:00,
2013-05-10 19:59:00,70.9,49.1,29.83,South,190,8.1,8.1,46,0.00,OVC,,0.00,WeatherDisplay:10.37,2013-05-10 23:59:00,
2013-05-10 20:04:00,70.9,49.6,29.83,South,180,10.4,10.4,47,0.00,OVC,,0.00,WeatherDisplay:10.37,2013-05-11 00:04:00,
2013-05-10 20:09:00,70.9,49.6,29.83,South,180,10.4,10.4,47,0.00,OVC,,0.00,WeatherDisplay:10.37,2013-05-11 00:09:00,
2013-05-10 20:14:00,70.9,49.6,29.83,South,180,10.4,10.4,47,0.00,OVC,,0.00,WeatherDisplay:10.37,2013-05-11 00:14:00,
2013-05-10 20:19:00,70.9,49.6,29.81,South,180,10.4,10.4,47,0.00,OVC,,0.00,WeatherDisplay:10.37,2013-05-11 00:19:00,
2013-05-10 20:24:00,70.7,49.5,29.81,South,180,10.4,10.4,47,0.00,OVC,,0.00,WeatherDisplay:10.37,2013-05-11 00:24:00,
2013-05-10 20:29:00,70.5,49.3,29.81,South,180,10.4,10.4,47,0.00,OVC,,0.00,WeatherDisplay:10.37,2013-05-11 00:29:00,
2013-05-10 20:34:00,70.3,49.1,29.81,South,180,10.4,10.4,47,0.00,OVC,,0.00,WeatherDisplay:10.37,2013-05-11 00:34:00,
2013-05-10 20:39:00,70.3,49.1,29.81,South,180,10.4,10.4,47,0.00,OVC,,0.00,WeatherDisplay:10.37,2013-05-11 00:39:00,
2013-05-10 20:44:00,70.3,49.1,29.81,South,180,10.4,10.4,47,0.00,OVC,,0.00,WeatherDisplay:10.37,2013-05-11 00:44:00,
2013-05-10 20:49:00,70.3,49.1,29.81,South,180,10.4,10.4,47,0.00,OVC,,0.00,WeatherDisplay:10.37,2013-05-11 00:49:00,
2013-05-10 20:54:00,70.3,49.1,29.81,South,180,10.4,10.4,47,0.00,OVC,,0.00,WeatherDisplay:10.37,2013-05-11 00:54:00,
2013-05-10 20:59:00,70.3,49.1,29.81,South,180,10.4,10.4,47,0.00,OVC,,0.00,WeatherDisplay:10.37,2013-05-11 00:59:00,
2013-05-10 21:04:00,70.3,50.3,29.81,SSE,160,6.9,6.9,49,0.00,OVC,,0.00,WeatherDisplay:10.37,2013-05-11 01:04:00,
2013-05-10 21:09:00,70.3,50.3,29.81,SSE,160,6.9,6.9,49,0.00,OVC,,0.00,WeatherDisplay:10.37,2013-05-11 01:09:00,
2013-05-10 21:14:00,70.2,50.1,29.81,SSE,160,6.9,6.9,49,0.00,OVC,,0.00,WeatherDisplay:10.37,2013-05-11 01:14:00,
2013-05-10 21:19:00,70.2,50.1,29.81,SSE,160,6.9,6.9,49,0.00,OVC,,0.00,WeatherDisplay:10.37,2013-05-11 01:19:00,
2013-05-10 21:24:00,70.2,50.1,29.81,SSE,160,6.9,6.9,49,0.00,OVC,,0.00,WeatherDisplay:10.37,2013-05-11 01:24:00,
2013-05-10 21:29:00,70.0,49.9,29.81,SSE,160,6.9,6.9,49,0.00,OVC,,0.00,WeatherDisplay:10.37,2013-05-11 01:29:00,
2013-05-10 21:34:00,70.0,49.9,29.81,SSE,160,6.9,6.9,49,0.00,OVC,,0.00,WeatherDisplay:10.37,2013-05-11 01:34:00,
2013-05-10 21:39:00,70.0,49.9,29.81,SSE,160,6.9,6.9,49,0.00,OVC,,0.00,WeatherDisplay:10.37,2013-05-11 01:39:00,
2013-05-10 21:44:00,69.8,49.8,29.81,SSE,160,6.9,6.9,49,0.00,OVC,,0.00,WeatherDisplay:10.37,2013-05-11 01:44:00,
2013-05-10 21:49:00,69.8,49.8,29.81,SSE,160,6.9,6.9,49,0.00,OVC,,0.00,WeatherDisplay:10.37,2013-05-11 01:49:00,
2013-05-10 21:54:00,69.8,49.8,29.81,SSE,160,6.9,6.9,49,0.00,OVC,,0.00,WeatherDisplay:10.37,2013-05-11 01:54:00,
2013-05-10 21:59:00,69.8,49.8,29.81,SSE,160,6.9,6.9,49,0.00,OVC,,0.00,WeatherDisplay:10.37,2013-05-11 01:59:00,
2013-05-10 22:04:00,69.6,51.2,29.81,South,170,11.5,11.5,52,0.00,OVC,,0.00,WeatherDisplay:10.37,2013-05-11 02:04:00,
2013-05-10 22:09:00,69.6,51.2,29.81,South,170,11.5,11.5,52,0.00,OVC,,0.00,WeatherDisplay:10.37,2013-05-11 02:09:00,
2013-05-10 22:14:00,69.4,51.0,29.81,South,170,11.5,11.5,52,0.00,OVC,,0.00,WeatherDisplay:10.37,2013-05-11 02:14:00,
2013-05-10 22:19:00,69.4,51.0,29.81,South,170,11.5,11.5,52,0.00,OVC,,0.00,WeatherDisplay:10.37,2013-05-11 02:19:00,
2013-05-10 22:24:00,69.3,50.9,29.81,South,170,11.5,11.5,52,0.00,OVC,,0.00,WeatherDisplay:10.37,2013-05-11 02:24:00,
2013-05-10 22:29:00,69.3,50.9,29.81,South,170,11.5,11.5,52,0.00,OVC,,0.00,WeatherDisplay:10.37,2013-05-11 02:29:00,
2013-05-10 22:34:00,69.3,50.9,29.81,South,170,11.5,11.5,52,0.00,OVC,,0.00,WeatherDisplay:10.37,2013-05-11 02:34:00,
2013-05-10 22:39:00,69.1,50.7,29.81,South,170,11.5,11.5,52,0.00,OVC,,0.00,WeatherDisplay:10.37,2013-05-11 02:39:00,
2013-05-10 22:44:00,69.1,50.7,29.81,South,170,11.5,11.5,52,0.00,OVC,,0.00,WeatherDisplay:10.37,2013-05-11 02:44:00,
2013-05-10 22:49:00,69.1,50.7,29.81,South,170,11.5,11.5,52,0.00,OVC,,0.00,WeatherDisplay:10.37,2013-05-11 02:49:00,
2013-05-10 22:54:00,68.9,50.5,29.81,South,170,11.5,11.5,52,0.00,OVC,,0.00,WeatherDisplay:10.37,2013-05-11 02:54:00,
2013-05-10 22:59:00,68.9,50.5,29.81,South,170,11.5,11.5,52,0.00,OVC,,0.00,WeatherDisplay:10.37,2013-05-11 02:59:00,
2013-05-10 23:04:00,68.9,50.5,29.81,South,170,11.5,11.5,52,0.00,OVC,,0.00,WeatherDisplay:10.37,2013-05-11 03:04:00,
2013-05-10 23:09:00,68.9,50.5,29.81,South,170,11.5,11.5,52,0.00,OVC,,0.00,WeatherDisplay:10.37,2013-05-11 03:09:00,
2013-05-10 23:14:00,68.9,50.5,29.77,South,170,11.5,11.5,52,0.00,OVC,,0.00,WeatherDisplay:10.37,2013-05-11 03:14:00,
2013-05-10 23:19:00,68.7,51.4,29.77,South,170,13.8,25.3,54,0.00,OVC,,0.00,WeatherDisplay:10.37,2013-05-11 03:19:00,
2013-05-10 23:24:00,68.7,51.4,29.77,South,170,13.8,25.3,54,0.00,OVC,,0.00,WeatherDisplay:10.37,2013-05-11 03:24:00,
2013-05-10 23:29:00,68.7,51.4,29.77,South,170,13.8,25.3,54,0.00,OVC,,0.00,WeatherDisplay:10.37,2013-05-11 03:29:00,
2013-05-10 23:34:00,68.7,51.4,29.77,South,170,13.8,25.3,54,0.00,OVC,,0.00,WeatherDisplay:10.37,2013-05-11 03:34:00,
2013-05-10 23:39:00,68.7,51.4,29.77,South,170,13.8,25.3,54,0.00,OVC,,0.00,WeatherDisplay:10.37,2013-05-11 03:39:00,
2013-05-10 23:44:00,68.5,51.2,29.77,South,170,13.8,25.3,54,0.00,OVC,,0.00,WeatherDisplay:10.37,2013-05-11 03:44:00,
2013-05-10 23:49:00,68.5,51.2,29.77,South,170,13.8,25.3,54,0.00,OVC,,0.00,WeatherDisplay:10.37,2013-05-11 03:49:00,
2013-05-10 23:54:00,68.5,51.2,29.77,South,170,13.8,25.3,54,0.00,OVC,,0.00,WeatherDisplay:10.37,2013-05-11 03:54:00,
2013-05-10 23:59:00,68.4,51.1,29.77,South,170,13.8,25.3,54,0.00,OVC,,0.00,WeatherDisplay:10.37,2013-05-11 03:59:00,